createdAt,value
2023-01-07T00:00:08.498Z,60.95
2023-01-07T00:02:10.118Z,60.77
2023-01-07T00:04:13.161Z,61.01
2023-01-07T00:06:16.453Z,61.31
2023-01-07T00:08:18.019Z,61.64
2023-01-07T00:10:19.566Z,63.16
2023-01-07T00:12:21.164Z,64.14
2023-01-07T00:14:22.739Z,64.41
2023-01-07T00:16:25.543Z,64.54
2023-01-07T00:18:27.230Z,64.63
2023-01-07T00:20:28.800Z,64.84
2023-01-07T00:22:30.647Z,65.29
2023-01-07T00:24:32.104Z,65.37
2023-01-07T00:26:34.637Z,64.64
2023-01-07T00:28:37.731Z,64.87
2023-01-07T00:30:39.325Z,63.79
2023-01-07T00:32:59.717Z,64.29
2023-01-07T00:35:01.388Z,63.57
2023-01-07T00:37:38.126Z,62.67
2023-01-07T00:39:41.297Z,62.09
2023-01-07T00:42:02.536Z,61.71
2023-01-07T00:44:04.719Z,63.39
2023-01-07T00:46:06.400Z,63.75
2023-01-07T00:48:07.907Z,63.38
2023-01-07T00:50:09.496Z,63.74
2023-01-07T00:52:11.068Z,63.68
2023-01-07T00:54:12.571Z,63.06
2023-01-07T00:56:19.201Z,63.07
2023-01-07T00:58:21.657Z,63.48
2023-01-07T01:00:23.671Z,63.07
2023-01-07T01:02:26.441Z,62.67
2023-01-07T01:04:28.360Z,62.75
2023-01-07T01:06:30.189Z,61.85
2023-01-07T01:08:31.970Z,61.82
2023-01-07T01:10:33.675Z,61.59
2023-01-07T01:12:35.464Z,61.62
2023-01-07T01:14:36.996Z,61.26
2023-01-07T01:16:38.693Z,61.00
2023-01-07T01:18:40.416Z,61.03
2023-01-07T01:20:41.957Z,60.66
2023-01-07T01:22:43.720Z,60.61
2023-01-07T01:24:45.325Z,60.92
2023-01-07T01:26:46.858Z,60.52
2023-01-07T01:28:48.359Z,60.62
2023-01-07T01:30:54.803Z,60.68
2023-01-07T01:32:56.469Z,60.66
2023-01-07T01:34:58.079Z,60.89
2023-01-07T01:37:00.781Z,61.13
2023-01-07T01:39:02.417Z,60.84
2023-01-07T01:41:04.076Z,60.81
2023-01-07T01:43:05.626Z,61.04
2023-01-07T01:45:07.407Z,60.66
2023-01-07T01:47:14.701Z,60.96
2023-01-07T01:49:30.956Z,60.89
2023-01-07T01:51:34.894Z,60.49
2023-01-07T01:53:36.461Z,60.78
2023-01-07T01:55:39.027Z,60.94
2023-01-07T01:57:40.633Z,60.53
2023-01-07T01:59:42.695Z,60.87
2023-01-07T02:01:44.974Z,61.09
2023-01-07T02:03:47.046Z,61.21
2023-01-07T02:05:48.538Z,61.07
2023-01-07T02:07:50.068Z,61.20
2023-01-07T02:09:57.155Z,61.53
2023-01-07T02:12:04.775Z,61.03
2023-01-07T02:14:06.585Z,61.26
2023-01-07T02:16:08.168Z,61.37
2023-01-07T02:18:29.011Z,61.66
2023-01-07T02:20:49.194Z,61.66
2023-01-07T02:22:56.551Z,61.43
2023-01-07T02:25:13.524Z,61.32
2023-01-07T02:27:15.210Z,61.03
2023-01-07T02:29:35.592Z,61.86
2023-01-07T02:31:55.798Z,62.86
2023-01-07T02:34:16.049Z,62.43
2023-01-07T02:36:20.597Z,63.99
2023-01-07T02:38:22.212Z,64.63
2023-01-07T02:40:29.824Z,64.71
2023-01-07T02:42:37.236Z,65.74
2023-01-07T02:44:42.018Z,64.89
2023-01-07T02:46:47.914Z,64.95
2023-01-07T02:48:49.423Z,65.21
2023-01-07T02:50:50.956Z,65.01
2023-01-07T02:52:53.841Z,65.65
2023-01-07T02:54:58.805Z,65.23
2023-01-07T02:57:15.432Z,65.61
2023-01-07T02:59:23.198Z,65.93
2023-01-07T03:01:28.708Z,66.06
2023-01-07T03:03:42.458Z,64.68
2023-01-07T03:06:02.548Z,65.02
2023-01-07T03:08:04.075Z,64.61
2023-01-07T03:10:24.130Z,64.00
2023-01-07T03:12:44.451Z,63.56
2023-01-07T03:14:48.379Z,64.31
2023-01-07T03:16:58.112Z,64.95
2023-01-07T03:19:00.658Z,65.58
2023-01-07T03:21:03.716Z,65.50
2023-01-07T03:23:06.744Z,65.08
2023-01-07T03:25:08.327Z,65.45
2023-01-07T03:27:09.841Z,64.59
2023-01-07T03:29:12.165Z,64.24
2023-01-07T03:31:14.263Z,63.62
2023-01-07T03:33:21.941Z,63.66
2023-01-07T03:35:23.624Z,63.04
2023-01-07T03:37:25.591Z,62.20
2023-01-07T03:39:27.432Z,62.27
2023-01-07T03:41:47.688Z,62.67
2023-01-07T03:43:49.187Z,62.82
2023-01-07T03:45:50.901Z,62.49
2023-01-07T03:47:53.704Z,63.00
2023-01-07T03:49:55.609Z,62.68
2023-01-07T03:51:57.088Z,62.95
2023-01-07T03:53:58.709Z,62.63
2023-01-07T03:56:00.519Z,63.06
2023-01-07T03:58:02.427Z,62.52
2023-01-07T04:00:05.391Z,62.18
2023-01-07T04:02:06.990Z,62.58
2023-01-07T04:04:08.775Z,62.32
2023-01-07T04:06:10.473Z,62.17
2023-01-07T04:08:12.158Z,61.95
2023-01-07T04:10:13.780Z,61.66
2023-01-07T04:12:15.667Z,62.02
2023-01-07T04:14:17.535Z,61.83
2023-01-07T04:16:19.355Z,62.48
2023-01-07T04:18:20.967Z,62.24
2023-01-07T04:20:22.548Z,61.89
2023-01-07T04:22:24.233Z,62.03
2023-01-07T04:24:25.754Z,61.62
2023-01-07T04:26:27.263Z,61.57
2023-01-07T04:28:28.880Z,61.58
2023-01-07T04:30:30.463Z,61.37
2023-01-07T04:32:32.096Z,61.26
2023-01-07T04:34:33.723Z,61.14
2023-01-07T04:36:35.542Z,61.49
2023-01-07T04:38:37.166Z,61.64
2023-01-07T04:40:38.687Z,61.67
2023-01-07T04:42:40.202Z,61.58
2023-01-07T04:44:41.999Z,61.29
2023-01-07T04:46:44.131Z,60.96
2023-01-07T04:48:45.796Z,60.93
2023-01-07T04:50:48.370Z,60.72
2023-01-07T04:52:50.234Z,61.21
2023-01-07T04:54:51.904Z,61.34
2023-01-07T04:56:53.747Z,61.00
2023-01-07T04:58:55.427Z,61.14
2023-01-07T05:00:58.626Z,60.82
2023-01-07T05:03:00.446Z,60.95
2023-01-07T05:05:02.000Z,61.29
2023-01-07T05:07:03.534Z,60.49
2023-01-07T05:09:05.380Z,60.81
2023-01-07T05:11:06.902Z,61.31
2023-01-07T05:13:10.738Z,60.68
2023-01-07T05:15:12.552Z,60.76
2023-01-07T05:17:14.401Z,60.96
2023-01-07T05:19:16.075Z,60.58
2023-01-07T05:21:18.149Z,60.86
2023-01-07T05:23:19.855Z,60.98
2023-01-07T05:25:21.482Z,60.65
2023-01-07T05:27:22.988Z,60.86
2023-01-07T05:29:24.439Z,60.84
2023-01-07T05:31:26.029Z,60.84
2023-01-07T05:33:27.864Z,62.04
2023-01-07T05:35:29.631Z,61.67
2023-01-07T05:37:31.196Z,61.44
2023-01-07T05:39:32.928Z,60.98
2023-01-07T05:41:34.539Z,61.24
2023-01-07T05:43:36.154Z,62.27
2023-01-07T05:45:37.752Z,62.17
2023-01-07T05:47:39.289Z,62.25
2023-01-07T05:49:40.769Z,62.43
2023-01-07T05:51:42.283Z,62.24
2023-01-07T05:53:43.780Z,62.24
2023-01-07T05:55:45.294Z,62.20
2023-01-07T05:57:46.809Z,62.57
2023-01-07T05:59:48.436Z,63.76
2023-01-07T06:01:50.184Z,63.99
2023-01-07T06:03:52.007Z,63.98
2023-01-07T06:05:53.579Z,63.85
2023-01-07T06:07:55.098Z,64.11
2023-01-07T06:09:56.852Z,63.74
2023-01-07T06:11:58.607Z,65.23
2023-01-07T06:14:00.304Z,65.18
2023-01-07T06:16:02.390Z,64.26
2023-01-07T06:18:04.130Z,63.41
2023-01-07T06:20:06.176Z,63.35
2023-01-07T06:22:07.815Z,63.11
2023-01-07T06:24:10.631Z,63.84
2023-01-07T06:26:12.075Z,63.90
2023-01-07T06:28:13.744Z,63.06
2023-01-07T06:30:15.324Z,59.60
2023-01-07T06:32:16.883Z,58.68
2023-01-07T06:34:18.559Z,58.87
2023-01-07T06:36:20.267Z,59.68
2023-01-07T06:38:21.968Z,60.37
2023-01-07T06:40:23.633Z,60.74
2023-01-07T06:42:25.206Z,60.36
2023-01-07T06:44:26.711Z,59.57
2023-01-07T06:46:28.299Z,58.27
2023-01-07T06:48:30.316Z,58.10
2023-01-07T06:50:31.801Z,59.03
2023-01-07T06:52:33.547Z,58.22
2023-01-07T06:54:35.199Z,58.22
2023-01-07T06:56:36.761Z,57.71
2023-01-07T06:58:38.542Z,58.12
2023-01-07T07:00:40.129Z,57.87
2023-01-07T07:02:41.705Z,58.18
2023-01-07T07:04:43.286Z,58.37
2023-01-07T07:06:44.775Z,58.50
2023-01-07T07:08:46.327Z,58.86
2023-01-07T07:10:48.002Z,60.47
2023-01-07T07:12:49.512Z,61.05
2023-01-07T07:14:51.067Z,60.70
2023-01-07T07:16:52.856Z,60.21
2023-01-07T07:18:54.565Z,60.03
2023-01-07T07:20:56.055Z,60.77
2023-01-07T07:22:57.748Z,59.40
2023-01-07T07:24:59.272Z,60.46
2023-01-07T07:27:00.767Z,61.06
2023-01-07T07:29:02.349Z,60.78
2023-01-07T07:31:03.975Z,60.73
2023-01-07T07:33:05.646Z,61.81
2023-01-07T07:35:07.580Z,61.64
2023-01-07T07:37:09.232Z,61.58
2023-01-07T07:39:11.392Z,61.93
2023-01-07T07:41:12.989Z,62.04
2023-01-07T07:43:14.811Z,62.83
2023-01-07T07:45:16.421Z,63.27
2023-01-07T07:47:18.139Z,63.11
2023-01-07T07:49:19.739Z,62.56
2023-01-07T07:51:21.399Z,61.50
2023-01-07T07:53:22.950Z,60.67
2023-01-07T07:55:26.447Z,59.51
2023-01-07T07:57:28.278Z,59.59
2023-01-07T07:59:30.109Z,60.06
2023-01-07T08:01:31.824Z,60.93
2023-01-07T08:03:33.825Z,61.20
2023-01-07T08:05:35.597Z,60.71
2023-01-07T08:07:37.823Z,60.42
2023-01-07T08:09:39.463Z,59.34
2023-01-07T08:11:41.236Z,59.02
2023-01-07T08:13:42.803Z,58.06
2023-01-07T08:15:44.613Z,58.48
2023-01-07T08:17:46.176Z,57.94
2023-01-07T08:19:47.843Z,57.32
2023-01-07T08:21:49.758Z,57.63
2023-01-07T08:23:51.592Z,57.44
2023-01-07T08:25:53.135Z,56.86
2023-01-07T08:27:55.075Z,57.40
2023-01-07T08:29:57.025Z,57.56
2023-01-07T08:31:58.501Z,56.91
2023-01-07T08:34:00.067Z,57.06
2023-01-07T08:36:02.520Z,57.66
2023-01-07T08:38:06.119Z,57.90
2023-01-07T08:40:08.007Z,57.59
2023-01-07T08:42:09.844Z,57.26
2023-01-07T08:44:11.430Z,57.55
2023-01-07T08:46:13.395Z,57.42
2023-01-07T08:48:15.243Z,57.39
2023-01-07T08:50:16.876Z,56.72
2023-01-07T08:52:18.385Z,56.03
2023-01-07T08:54:19.934Z,55.83
2023-01-07T08:56:22.897Z,55.08
2023-01-07T08:58:25.923Z,55.94
2023-01-07T09:00:27.788Z,56.51
2023-01-07T09:02:29.358Z,55.80
2023-01-07T09:04:31.185Z,54.97
2023-01-07T09:06:33.006Z,54.52
2023-01-07T09:08:34.643Z,54.39
2023-01-07T09:10:36.329Z,55.34
2023-01-07T09:12:38.194Z,55.58
2023-01-07T09:14:39.681Z,55.04
2023-01-07T09:16:41.322Z,54.10
2023-01-07T09:18:43.369Z,53.94
2023-01-07T09:20:45.066Z,54.52
2023-01-07T09:22:46.705Z,55.02
2023-01-07T09:24:48.329Z,55.09
2023-01-07T09:26:49.855Z,56.31
2023-01-07T09:28:51.436Z,54.96
2023-01-07T09:30:54.858Z,55.76
2023-01-07T09:32:58.151Z,55.43
2023-01-07T09:34:59.894Z,55.45
2023-01-07T09:37:01.374Z,55.70
2023-01-07T09:39:03.073Z,55.31
2023-01-07T09:41:04.608Z,54.75
2023-01-07T09:44:00.685Z,53.96
2023-01-07T09:45:57.845Z,53.28
2023-01-07T09:48:00.116Z,52.99
2023-01-07T09:50:02.478Z,52.39
2023-01-07T09:52:08.833Z,52.67
2023-01-07T09:54:33.621Z,53.07
2023-01-07T09:56:35.581Z,53.21
2023-01-07T09:58:38.110Z,52.90
2023-01-07T10:00:39.632Z,53.08
2023-01-07T10:02:45.044Z,52.80
2023-01-07T10:04:46.590Z,53.11
2023-01-07T10:06:51.492Z,52.79
2023-01-07T10:09:08.091Z,51.71
2023-01-07T10:11:32.490Z,51.89
2023-01-07T10:13:44.188Z,51.64
2023-01-07T10:15:45.756Z,52.44
2023-01-07T10:17:50.170Z,52.61
2023-01-07T10:19:54.389Z,53.54
2023-01-07T10:22:03.540Z,53.65
2023-01-07T10:24:13.730Z,54.17
2023-01-07T10:26:23.043Z,53.56
2023-01-07T10:28:24.835Z,52.56
2023-01-07T10:30:27.682Z,52.22
2023-01-07T10:32:32.975Z,51.11
2023-01-07T10:34:36.343Z,51.02
2023-01-07T10:36:40.493Z,52.00
2023-01-07T10:38:42.626Z,51.66
2023-01-07T10:40:44.662Z,50.93
2023-01-07T10:42:49.059Z,50.58
2023-01-07T10:45:02.817Z,50.31
2023-01-07T10:47:07.375Z,50.67
2023-01-07T10:49:15.233Z,51.16
2023-01-07T10:51:27.884Z,51.31
2023-01-07T10:53:52.366Z,51.50
2023-01-07T10:56:09.010Z,51.24
2023-01-07T10:58:11.379Z,50.83
2023-01-07T11:00:13.575Z,50.68
2023-01-07T11:02:16.916Z,50.04
2023-01-07T11:04:18.753Z,49.56
2023-01-07T11:06:22.459Z,48.57
2023-01-07T11:08:28.709Z,49.10
2023-01-07T11:10:33.845Z,49.90
2023-01-07T11:12:56.790Z,49.98
2023-01-07T11:14:58.377Z,50.03
2023-01-07T11:17:07.823Z,50.23
2023-01-07T11:19:10.158Z,50.57
2023-01-07T11:21:43.099Z,50.49
2023-01-07T11:23:42.791Z,51.62
2023-01-07T11:25:45.350Z,52.37
2023-01-07T11:27:46.812Z,52.05
2023-01-07T11:29:57.680Z,51.03
2023-01-07T11:31:59.795Z,50.40
2023-01-07T11:34:04.478Z,49.81
2023-01-07T11:36:06.762Z,50.03
2023-01-07T11:38:25.342Z,49.94
2023-01-07T11:40:27.959Z,49.74
2023-01-07T11:42:38.938Z,49.74
2023-01-07T11:44:40.496Z,49.87
2023-01-07T11:46:43.722Z,49.20
2023-01-07T11:48:50.206Z,49.76
2023-01-07T11:50:54.662Z,49.70
2023-01-07T11:52:57.048Z,49.34
2023-01-07T11:54:58.647Z,48.72
2023-01-07T11:57:13.313Z,48.47
2023-01-07T11:59:17.118Z,47.41
2023-01-07T12:01:19.734Z,47.12
2023-01-07T12:03:21.292Z,47.23
2023-01-07T12:05:23.719Z,49.25
2023-01-07T12:07:26.586Z,50.19
2023-01-07T12:09:31.155Z,50.54
2023-01-07T12:11:36.615Z,50.52
2023-01-07T12:13:39.116Z,50.74
2023-01-07T12:15:47.599Z,50.31
2023-01-07T12:17:49.816Z,49.98
2023-01-07T12:19:54.427Z,49.29
2023-01-07T12:22:02.090Z,48.93
2023-01-07T12:24:15.807Z,48.42
2023-01-07T12:26:18.739Z,48.77
2023-01-07T12:28:22.707Z,49.82
2023-01-07T12:30:35.427Z,50.37
2023-01-07T12:33:15.714Z,50.73
2023-01-07T12:35:21.445Z,51.22
2023-01-07T12:37:32.194Z,50.82
2023-01-07T12:39:35.284Z,49.89
2023-01-07T12:41:40.663Z,49.25
2023-01-07T12:43:51.538Z,48.71
2023-01-07T12:45:56.817Z,48.99
2023-01-07T12:48:01.328Z,49.51
2023-01-07T12:50:02.984Z,49.86
2023-01-07T12:52:12.571Z,49.74
2023-01-07T12:54:34.683Z,50.13
2023-01-07T12:56:38.281Z,50.20
2023-01-07T12:58:45.357Z,50.48
2023-01-07T13:00:55.627Z,49.96
2023-01-07T13:03:02.082Z,49.82
2023-01-07T13:05:03.744Z,50.21
2023-01-07T13:07:19.800Z,49.92
2023-01-07T13:09:24.771Z,49.73
2023-01-07T13:11:55.442Z,49.59
2023-01-07T13:13:57.031Z,49.63
2023-01-07T13:15:58.634Z,49.49
2023-01-07T13:18:08.206Z,49.46
2023-01-07T13:20:16.311Z,49.49
2023-01-07T13:22:24.618Z,49.25
2023-01-07T13:24:54.804Z,49.41
2023-01-07T13:27:14.272Z,49.51
2023-01-07T13:29:19.250Z,49.52
2023-01-07T13:31:41.367Z,49.38
2023-01-07T13:33:47.429Z,49.57
2023-01-07T13:36:06.660Z,49.20
2023-01-07T13:38:11.191Z,49.46
2023-01-07T13:40:32.868Z,49.87
2023-01-07T13:42:37.000Z,50.20
2023-01-07T13:44:58.501Z,50.08
2023-01-07T13:47:00.163Z,49.74
2023-01-07T13:49:01.818Z,49.56
2023-01-07T13:51:06.503Z,49.47
2023-01-07T13:53:28.128Z,49.48
2023-01-07T13:55:42.585Z,49.36
2023-01-07T13:57:44.304Z,49.48
2023-01-07T13:59:49.342Z,49.29
2023-01-07T14:02:09.331Z,49.51
2023-01-07T14:04:16.798Z,49.65
2023-01-07T14:06:18.376Z,49.69
2023-01-07T14:08:26.133Z,49.84
2023-01-07T14:10:27.745Z,49.70
2023-01-07T14:12:35.344Z,49.66
2023-01-07T14:14:52.347Z,49.33
2023-01-07T14:16:59.651Z,49.17
2023-01-07T14:19:02.313Z,49.09
2023-01-07T14:21:04.248Z,48.96
2023-01-07T14:23:08.884Z,48.96
2023-01-07T14:25:29.000Z,48.96
2023-01-07T14:27:49.222Z,48.85
2023-01-07T14:29:54.288Z,49.13
2023-01-07T14:32:27.411Z,48.85
2023-01-07T14:34:29.150Z,48.99
2023-01-07T14:37:06.486Z,49.14
2023-01-07T14:39:19.506Z,49.30
2023-01-07T14:41:21.359Z,49.15
2023-01-07T14:43:41.196Z,49.41
2023-01-07T14:45:51.824Z,49.72
2023-01-07T14:47:53.739Z,49.92
2023-01-07T14:50:13.887Z,50.19
2023-01-07T14:52:39.173Z,50.50
2023-01-07T14:54:59.551Z,50.98
2023-01-07T14:57:06.791Z,51.03
2023-01-07T14:59:08.476Z,51.21
2023-01-07T15:01:16.271Z,51.18
2023-01-07T15:03:36.767Z,51.46
2023-01-07T15:05:56.772Z,51.58
2023-01-07T15:08:19.272Z,51.85
2023-01-07T15:10:43.220Z,52.37
2023-01-07T15:13:04.430Z,52.39
2023-01-07T15:15:33.507Z,52.29
2023-01-07T15:17:38.490Z,52.47
2023-01-07T15:19:40.103Z,52.46
2023-01-07T15:21:51.827Z,52.67
2023-01-07T15:23:56.309Z,52.68
2023-01-07T15:25:57.762Z,52.48
2023-01-07T15:28:02.280Z,52.88
2023-01-07T15:30:22.431Z,52.71
2023-01-07T15:32:29.717Z,52.81
2023-01-07T15:34:31.579Z,53.14
2023-01-07T15:36:33.260Z,52.84
2023-01-07T15:38:34.711Z,52.86
2023-01-07T15:40:36.215Z,52.84
2023-01-07T15:42:37.916Z,52.56
2023-01-07T15:44:41.063Z,52.74
2023-01-07T15:46:43.068Z,53.19
2023-01-07T15:48:44.739Z,53.32
2023-01-07T15:50:46.267Z,53.42
2023-01-07T15:52:51.464Z,53.20
2023-01-07T15:54:52.910Z,53.04
2023-01-07T15:56:55.997Z,53.14
2023-01-07T15:58:57.726Z,53.14
2023-01-07T16:00:59.320Z,53.00
2023-01-07T16:03:01.085Z,52.50
2023-01-07T16:05:03.300Z,53.17
2023-01-07T16:07:04.891Z,53.32
2023-01-07T16:09:18.472Z,52.77
2023-01-07T16:11:24.904Z,53.28
2023-01-07T16:13:26.455Z,52.36
2023-01-07T16:15:35.254Z,52.96
2023-01-07T16:17:36.847Z,51.92
2023-01-07T16:19:38.375Z,51.80
2023-01-07T16:21:40.706Z,51.87
2023-01-07T16:23:42.690Z,51.68
2023-01-07T16:25:45.007Z,52.03
2023-01-07T16:27:46.533Z,51.72
2023-01-07T16:29:51.889Z,51.90
2023-01-07T16:31:53.570Z,51.51
2023-01-07T16:33:56.168Z,51.71
2023-01-07T16:35:58.554Z,51.35
2023-01-07T16:38:00.747Z,51.93
2023-01-07T16:40:02.474Z,51.10
2023-01-07T16:42:22.824Z,52.19
2023-01-07T16:44:40.620Z,51.42
2023-01-07T16:46:43.080Z,51.90
2023-01-07T16:48:45.049Z,51.82
2023-01-07T16:50:46.757Z,52.37
2023-01-07T16:52:52.032Z,51.98
2023-01-07T16:54:53.564Z,52.28
2023-01-07T16:56:58.742Z,52.19
2023-01-07T16:59:01.528Z,52.24
2023-01-07T17:01:03.261Z,52.81
2023-01-07T17:03:04.801Z,52.68
2023-01-07T17:05:12.666Z,52.13
2023-01-07T17:07:26.773Z,52.17
2023-01-07T17:09:32.631Z,52.73
2023-01-07T17:11:36.216Z,52.48
2023-01-07T17:13:38.967Z,53.16
2023-01-07T17:15:40.815Z,53.33
2023-01-07T17:17:42.347Z,53.14
2023-01-07T17:19:47.876Z,52.97
2023-01-07T17:21:49.322Z,53.53
2023-01-07T17:23:50.814Z,53.57
2023-01-07T17:25:58.789Z,53.16
2023-01-07T17:28:00.968Z,54.09
2023-01-07T17:30:03.464Z,54.94
2023-01-07T17:32:06.159Z,54.95
2023-01-07T17:34:09.487Z,55.58
2023-01-07T17:36:17.860Z,56.08
2023-01-07T17:38:19.388Z,55.52
2023-01-07T17:40:21.069Z,55.40
2023-01-07T17:42:43.278Z,56.23
2023-01-07T17:44:45.905Z,55.67
2023-01-07T17:46:47.496Z,56.61
2023-01-07T17:48:49.297Z,56.91
2023-01-07T17:50:50.950Z,58.01
2023-01-07T17:52:53.379Z,58.43
2023-01-07T17:54:54.925Z,57.82
2023-01-07T17:56:56.440Z,58.22
2023-01-07T17:58:58.115Z,57.80
2023-01-07T18:01:00.320Z,57.38
2023-01-07T18:03:01.947Z,57.38
2023-01-07T18:05:03.630Z,57.15
2023-01-07T18:07:05.168Z,57.13
2023-01-07T18:09:08.770Z,56.53
2023-01-07T18:11:30.864Z,56.37
2023-01-07T18:13:32.459Z,56.03
2023-01-07T18:15:34.006Z,56.19
2023-01-07T18:17:35.696Z,55.95
2023-01-07T18:19:37.210Z,55.19
2023-01-07T18:21:38.779Z,55.71
2023-01-07T18:23:40.284Z,55.77
2023-01-07T18:25:45.017Z,55.15
2023-01-07T18:27:46.972Z,55.74
2023-01-07T18:29:48.555Z,55.00
2023-01-07T18:31:50.252Z,54.80
2023-01-07T18:33:51.771Z,54.03
2023-01-07T18:35:53.674Z,54.53
2023-01-07T18:37:56.061Z,54.43
2023-01-07T18:40:06.238Z,54.50
2023-01-07T18:42:07.756Z,54.40
2023-01-07T18:44:09.431Z,54.31
2023-01-07T18:46:11.136Z,54.77
2023-01-07T18:48:13.138Z,55.64
2023-01-07T18:50:14.718Z,55.75
2023-01-07T18:52:16.474Z,55.10
2023-01-07T18:54:17.995Z,56.18
2023-01-07T18:56:19.533Z,56.41
2023-01-07T18:58:22.949Z,56.63
2023-01-07T19:00:24.505Z,55.70
2023-01-07T19:02:25.977Z,55.98
2023-01-07T19:04:27.806Z,56.28
2023-01-07T19:06:29.440Z,55.18
2023-01-07T19:08:31.003Z,55.86
2023-01-07T19:10:32.553Z,55.94
2023-01-07T19:12:34.187Z,56.03
2023-01-07T19:14:35.651Z,56.75
2023-01-07T19:16:39.131Z,56.82
2023-01-07T19:18:41.044Z,57.55
2023-01-07T19:20:42.524Z,57.58
2023-01-07T19:22:44.094Z,57.71
2023-01-07T19:24:45.792Z,58.07
2023-01-07T19:26:48.458Z,57.99
2023-01-07T19:28:49.950Z,57.86
2023-01-07T19:30:51.462Z,58.63
2023-01-07T19:32:53.373Z,59.46
2023-01-07T19:34:54.984Z,59.27
2023-01-07T19:36:56.503Z,58.32
2023-01-07T19:38:58.167Z,58.82
2023-01-07T19:40:59.832Z,59.03
2023-01-07T19:43:01.671Z,59.59
2023-01-07T19:45:03.377Z,59.12
2023-01-07T19:47:04.922Z,59.65
2023-01-07T19:49:06.914Z,59.08
2023-01-07T19:51:10.869Z,58.68
2023-01-07T19:53:12.835Z,58.32
2023-01-07T19:55:15.129Z,58.30
2023-01-07T19:57:16.948Z,58.50
2023-01-07T19:59:18.614Z,58.36
2023-01-07T20:01:24.278Z,58.40
2023-01-07T20:03:26.092Z,58.15
2023-01-07T20:05:29.687Z,58.17
2023-01-07T20:07:34.143Z,58.62
2023-01-07T20:09:35.905Z,59.05
2023-01-07T20:11:38.427Z,59.13
2023-01-07T20:13:40.333Z,58.80
2023-01-07T20:15:42.027Z,59.05
2023-01-07T20:17:43.757Z,58.54
2023-01-07T20:19:45.311Z,59.73
2023-01-07T20:21:46.808Z,60.33
2023-01-07T20:23:48.426Z,61.12
2023-01-07T20:25:50.133Z,61.48
2023-01-07T20:27:51.642Z,62.00
2023-01-07T20:29:53.140Z,61.95
2023-01-07T20:31:54.925Z,61.89
2023-01-07T20:33:57.671Z,62.54
2023-01-07T20:36:02.689Z,61.60
2023-01-07T20:38:04.830Z,61.30
2023-01-07T20:40:06.787Z,60.73
2023-01-07T20:42:08.753Z,60.44
2023-01-07T20:44:10.915Z,59.75
2023-01-07T20:46:15.456Z,59.33
2023-01-07T20:48:17.158Z,59.31
2023-01-07T20:50:18.720Z,58.96
2023-01-07T20:52:20.253Z,58.95
2023-01-07T20:54:22.494Z,59.09
2023-01-07T20:56:24.241Z,59.54
2023-01-07T20:58:25.925Z,59.28
2023-01-07T21:00:27.738Z,59.96
2023-01-07T21:02:29.704Z,60.27
2023-01-07T21:04:31.944Z,60.20
2023-01-07T21:06:33.968Z,60.21
2023-01-07T21:08:36.649Z,60.12
2023-01-07T21:10:38.630Z,60.32
2023-01-07T21:12:40.144Z,60.17
2023-01-07T21:14:41.684Z,60.19
2023-01-07T21:16:43.432Z,61.11
2023-01-07T21:18:45.056Z,61.16
2023-01-07T21:20:48.040Z,61.21
2023-01-07T21:22:49.583Z,61.34
2023-01-07T21:24:51.038Z,61.55
2023-01-07T21:26:52.876Z,61.29
2023-01-07T21:28:56.077Z,61.31
2023-01-07T21:31:01.764Z,61.15
2023-01-07T21:33:03.448Z,61.16
2023-01-07T21:35:05.137Z,60.99
2023-01-07T21:37:06.659Z,60.79
2023-01-07T21:39:08.890Z,60.99
2023-01-07T21:41:15.863Z,60.99
2023-01-07T21:43:17.541Z,61.23
2023-01-07T21:45:19.135Z,61.16
2023-01-07T21:47:20.761Z,61.02
2023-01-07T21:49:22.267Z,60.74
2023-01-07T21:51:24.970Z,60.94
2023-01-07T21:53:26.641Z,60.92
2023-01-07T21:55:28.224Z,60.97
2023-01-07T21:57:29.655Z,60.93
2023-01-07T21:59:31.159Z,61.17
2023-01-07T22:01:32.875Z,61.48
2023-01-07T22:03:35.363Z,61.16
2023-01-07T22:05:37.145Z,61.62
2023-01-07T22:07:39.045Z,61.53
2023-01-07T22:09:40.831Z,61.74
2023-01-07T22:11:43.153Z,61.52
2023-01-07T22:13:45.060Z,62.03
2023-01-07T22:15:46.824Z,62.18
2023-01-07T22:17:48.568Z,61.73
2023-01-07T22:19:53.071Z,62.65
2023-01-07T22:21:55.000Z,63.12
2023-01-07T22:23:56.600Z,62.51
2023-01-07T22:26:07.023Z,62.46
2023-01-07T22:28:08.652Z,62.80
2023-01-07T22:30:10.505Z,62.99
2023-01-07T22:32:12.201Z,62.46
2023-01-07T22:34:13.835Z,62.22
2023-01-07T22:36:16.794Z,62.40
2023-01-07T22:38:18.549Z,61.89
2023-01-07T22:40:20.207Z,61.99
2023-01-07T22:42:23.229Z,61.46
2023-01-07T22:44:26.490Z,62.22
2023-01-07T22:46:28.555Z,61.89
2023-01-07T22:48:30.665Z,62.04
2023-01-07T22:50:32.346Z,62.18
2023-01-07T22:52:34.354Z,62.69
2023-01-07T22:54:36.336Z,62.47
2023-01-07T22:56:37.982Z,62.48
2023-01-07T22:58:39.525Z,62.75
2023-01-07T23:00:41.912Z,62.47
2023-01-07T23:02:43.538Z,62.32
2023-01-07T23:04:45.082Z,62.17
2023-01-07T23:06:46.654Z,62.10
2023-01-07T23:08:48.204Z,62.16
2023-01-07T23:10:51.052Z,62.14
2023-01-07T23:12:52.559Z,61.71
2023-01-07T23:14:54.369Z,62.00
2023-01-07T23:16:56.270Z,62.15
2023-01-07T23:18:57.814Z,62.62
2023-01-07T23:20:59.528Z,63.29
2023-01-07T23:23:01.030Z,63.69
2023-01-07T23:25:02.499Z,64.49
2023-01-07T23:27:04.301Z,64.72
2023-01-07T23:29:05.931Z,65.14
2023-01-07T23:31:07.472Z,64.93
2023-01-07T23:33:08.972Z,65.62
2023-01-07T23:35:11.072Z,66.04
2023-01-07T23:37:12.492Z,65.24
2023-01-07T23:39:14.158Z,65.29
2023-01-07T23:41:15.754Z,65.01
2023-01-07T23:43:17.397Z,64.74
2023-01-07T23:45:19.143Z,64.97
2023-01-07T23:47:20.698Z,65.13
2023-01-07T23:49:22.224Z,65.79
2023-01-07T23:51:24.103Z,66.28
2023-01-07T23:53:25.614Z,66.54
2023-01-07T23:55:27.152Z,65.65
2023-01-07T23:57:28.830Z,64.86
2023-01-07T23:59:30.284Z,65.06
